タンクレド・ネヴェス国際空港の過去48時間の天気

タンクレド・ネヴェス国際空港 (Belo Horizonte)

現在時刻: 9/22 18:23 -03 (9/22 21:23 UTC) 以下の時間は現地時間です。

過去48時間のMETAR気象情報
時間 風向 風速(m/s) 視程 気温(℃) 湿度(%) 気圧(hPa) 天気現象
22 18:00 8 10km以上 24 57 1020
22 17:00 8 10km以上 26 51 1019
SBCF 222100Z 09016KT CAVOK 24/15 Q1020
SBCF 222000Z 08015KT CAVOK 26/15 Q1019